sensor_id;sensor_type;location;lat;lon;timestamp;P1;durP1;ratioP1;P2;durP2;ratioP2
80229;SDS011;69540;42.136;24.742;2023-10-19T00:00:18;3.75;;;3.45;;
80229;SDS011;69540;42.136;24.742;2023-10-19T00:02:48;3.78;;;3.55;;
80229;SDS011;69540;42.136;24.742;2023-10-19T00:05:17;3.97;;;3.63;;
80229;SDS011;69540;42.136;24.742;2023-10-19T00:07:43;4.00;;;3.70;;
80229;SDS011;69540;42.136;24.742;2023-10-19T00:10:09;4.55;;;3.85;;
80229;SDS011;69540;42.136;24.742;2023-10-19T00:12:35;3.95;;;3.60;;
80229;SDS011;69540;42.136;24.742;2023-10-19T00:15:02;4.03;;;3.72;;
80229;SDS011;69540;42.136;24.742;2023-10-19T00:17:29;4.15;;;3.85;;
80229;SDS011;69540;42.136;24.742;2023-10-19T00:19:55;3.90;;;3.60;;
80229;SDS011;69540;42.136;24.742;2023-10-19T00:22:59;3.80;;;3.50;;
80229;SDS011;69540;42.136;24.742;2023-10-19T00:25:27;4.30;;;3.90;;
80229;SDS011;69540;42.136;24.742;2023-10-19T00:27:54;3.95;;;3.65;;
80229;SDS011;69540;42.136;24.742;2023-10-19T00:30:19;3.95;;;3.55;;
80229;SDS011;69540;42.136;24.742;2023-10-19T00:32:48;3.65;;;3.40;;
80229;SDS011;69540;42.136;24.742;2023-10-19T00:35:16;4.00;;;3.70;;
80229;SDS011;69540;42.136;24.742;2023-10-19T00:37:59;4.10;;;3.80;;
80229;SDS011;69540;42.136;24.742;2023-10-19T00:40:49;4.00;;;3.70;;
80229;SDS011;69540;42.136;24.742;2023-10-19T00:43:30;4.00;;;3.70;;
80229;SDS011;69540;42.136;24.742;2023-10-19T00:46:03;4.07;;;3.67;;
80229;SDS011;69540;42.136;24.742;2023-10-19T00:48:56;3.75;;;3.45;;
80229;SDS011;69540;42.136;24.742;2023-10-19T00:51:26;3.88;;;3.60;;
80229;SDS011;69540;42.136;24.742;2023-10-19T00:56:47;4.50;;;4.10;;
80229;SDS011;69540;42.136;24.742;2023-10-19T00:59:21;3.92;;;3.58;;
80229;SDS011;69540;42.136;24.742;2023-10-19T01:01:52;3.85;;;3.55;;
80229;SDS011;69540;42.136;24.742;2023-10-19T01:04:28;3.63;;;3.33;;
80229;SDS011;69540;42.136;24.742;2023-10-19T01:07:00;4.05;;;3.63;;
80229;SDS011;69540;42.136;24.742;2023-10-19T01:09:44;3.83;;;3.53;;
80229;SDS011;69540;42.136;24.742;2023-10-19T01:12:10;4.00;;;3.70;;
80229;SDS011;69540;42.136;24.742;2023-10-19T01:15:03;4.38;;;3.97;;
80229;SDS011;69540;42.136;24.742;2023-10-19T01:17:31;3.80;;;3.50;;
80229;SDS011;69540;42.136;24.742;2023-10-19T01:20:03;4.32;;;3.90;;
80229;SDS011;69540;42.136;24.742;2023-10-19T01:22:42;4.40;;;3.75;;
80229;SDS011;69540;42.136;24.742;2023-10-19T01:25:12;4.10;;;3.80;;
80229;SDS011;69540;42.136;24.742;2023-10-19T01:27:45;3.80;;;3.50;;
80229;SDS011;69540;42.136;24.742;2023-10-19T01:30:12;4.20;;;3.80;;
80229;SDS011;69540;42.136;24.742;2023-10-19T01:32:40;3.88;;;3.58;;
80229;SDS011;69540;42.136;24.742;2023-10-19T01:35:07;4.10;;;3.70;;
80229;SDS011;69540;42.136;24.742;2023-10-19T01:37:33;4.07;;;3.78;;
80229;SDS011;69540;42.136;24.742;2023-10-19T01:40:03;4.20;;;3.90;;
80229;SDS011;69540;42.136;24.742;2023-10-19T01:42:29;4.00;;;3.70;;
80229;SDS011;69540;42.136;24.742;2023-10-19T01:44:56;4.05;;;3.75;;
80229;SDS011;69540;42.136;24.742;2023-10-19T01:47:21;4.03;;;3.72;;
80229;SDS011;69540;42.136;24.742;2023-10-19T01:49:47;4.10;;;3.80;;
80229;SDS011;69540;42.136;24.742;2023-10-19T01:52:17;4.10;;;3.80;;
80229;SDS011;69540;42.136;24.742;2023-10-19T01:54:43;3.60;;;3.30;;
80229;SDS011;69540;42.136;24.742;2023-10-19T01:57:09;3.85;;;3.55;;
80229;SDS011;69540;42.136;24.742;2023-10-19T01:59:34;4.07;;;3.75;;
80229;SDS011;69540;42.136;24.742;2023-10-19T02:02:00;4.07;;;3.78;;
80229;SDS011;69540;42.136;24.742;2023-10-19T02:04:27;3.92;;;3.63;;
80229;SDS011;69540;42.136;24.742;2023-10-19T02:06:53;4.00;;;3.70;;
80229;SDS011;69540;42.136;24.742;2023-10-19T02:09:20;3.97;;;3.67;;
80229;SDS011;69540;42.136;24.742;2023-10-19T02:11:48;4.05;;;3.75;;
80229;SDS011;69540;42.136;24.742;2023-10-19T02:14:17;4.65;;;3.58;;
80229;SDS011;69540;42.136;24.742;2023-10-19T02:16:45;4.03;;;3.70;;
80229;SDS011;69540;42.136;24.742;2023-10-19T02:19:13;3.95;;;3.65;;
80229;SDS011;69540;42.136;24.742;2023-10-19T02:21:39;4.28;;;3.88;;
80229;SDS011;69540;42.136;24.742;2023-10-19T02:24:08;3.78;;;3.47;;
80229;SDS011;69540;42.136;24.742;2023-10-19T02:26:39;4.30;;;3.90;;
80229;SDS011;69540;42.136;24.742;2023-10-19T02:29:05;4.40;;;4.03;;
80229;SDS011;69540;42.136;24.742;2023-10-19T02:31:39;3.83;;;3.53;;
80229;SDS011;69540;42.136;24.742;2023-10-19T02:34:06;4.38;;;3.90;;
80229;SDS011;69540;42.136;24.742;2023-10-19T02:36:34;3.92;;;3.63;;
80229;SDS011;69540;42.136;24.742;2023-10-19T02:39:03;4.03;;;3.63;;
80229;SDS011;69540;42.136;24.742;2023-10-19T02:41:33;4.38;;;3.63;;
80229;SDS011;69540;42.136;24.742;2023-10-19T02:44:12;3.88;;;3.58;;
80229;SDS011;69540;42.136;24.742;2023-10-19T02:46:42;4.20;;;3.80;;
80229;SDS011;69540;42.136;24.742;2023-10-19T02:49:09;4.50;;;4.10;;
80229;SDS011;69540;42.136;24.742;2023-10-19T02:51:37;3.92;;;3.63;;
80229;SDS011;69540;42.136;24.742;2023-10-19T02:54:09;3.90;;;3.60;;
80229;SDS011;69540;42.136;24.742;2023-10-19T02:56:42;4.20;;;3.90;;
80229;SDS011;69540;42.136;24.742;2023-10-19T02:59:09;3.63;;;3.42;;
80229;SDS011;69540;42.136;24.742;2023-10-19T03:01:35;4.10;;;3.67;;
80229;SDS011;69540;42.136;24.742;2023-10-19T03:04:01;3.78;;;3.50;;
80229;SDS011;69540;42.136;24.742;2023-10-19T03:06:29;3.78;;;3.45;;
80229;SDS011;69540;42.136;24.742;2023-10-19T03:08:59;3.65;;;3.35;;
80229;SDS011;69540;42.136;24.742;2023-10-19T03:11:38;3.95;;;3.60;;
80229;SDS011;69540;42.136;24.742;2023-10-19T03:14:08;3.80;;;3.50;;
80229;SDS011;69540;42.136;24.742;2023-10-19T03:16:35;3.90;;;3.60;;
80229;SDS011;69540;42.136;24.742;2023-10-19T03:19:02;4.20;;;3.75;;
80229;SDS011;69540;42.136;24.742;2023-10-19T03:21:29;3.72;;;3.42;;
80229;SDS011;69540;42.136;24.742;2023-10-19T03:23:58;3.72;;;3.42;;
80229;SDS011;69540;42.136;24.742;2023-10-19T03:26:30;3.85;;;3.55;;
80229;SDS011;69540;42.136;24.742;2023-10-19T03:28:56;3.80;;;3.50;;
80229;SDS011;69540;42.136;24.742;2023-10-19T03:31:28;4.00;;;3.70;;
80229;SDS011;69540;42.136;24.742;2023-10-19T03:33:54;4.15;;;3.78;;
80229;SDS011;69540;42.136;24.742;2023-10-19T03:36:21;3.72;;;3.42;;
80229;SDS011;69540;42.136;24.742;2023-10-19T03:38:47;3.88;;;3.58;;
80229;SDS011;69540;42.136;24.742;2023-10-19T03:41:16;4.05;;;3.70;;
80229;SDS011;69540;42.136;24.742;2023-10-19T03:43:46;3.75;;;3.45;;
80229;SDS011;69540;42.136;24.742;2023-10-19T03:46:13;3.63;;;3.33;;
80229;SDS011;69540;42.136;24.742;2023-10-19T03:48:47;3.72;;;3.45;;
80229;SDS011;69540;42.136;24.742;2023-10-19T03:51:13;3.72;;;3.42;;
80229;SDS011;69540;42.136;24.742;2023-10-19T03:53:39;6.28;;;3.40;;
80229;SDS011;69540;42.136;24.742;2023-10-19T03:56:11;3.78;;;3.47;;
80229;SDS011;69540;42.136;24.742;2023-10-19T03:58:38;4.20;;;3.80;;
80229;SDS011;69540;42.136;24.742;2023-10-19T04:01:06;4.50;;;4.10;;
80229;SDS011;69540;42.136;24.742;2023-10-19T04:03:32;4.30;;;4.00;;
80229;SDS011;69540;42.136;24.742;2023-10-19T04:05:59;4.75;;;4.35;;
80229;SDS011;69540;42.136;24.742;2023-10-19T04:08:26;5.18;;;4.30;;
80229;SDS011;69540;42.136;24.742;2023-10-19T04:10:52;5.65;;;4.32;;
80229;SDS011;69540;42.136;24.742;2023-10-19T04:13:36;5.70;;;4.00;;
80229;SDS011;69540;42.136;24.742;2023-10-19T04:16:03;5.32;;;4.55;;
80229;SDS011;69540;42.136;24.742;2023-10-19T04:18:35;4.88;;;4.18;;
80229;SDS011;69540;42.136;24.742;2023-10-19T04:21:08;4.55;;;4.10;;
80229;SDS011;69540;42.136;24.742;2023-10-19T04:23:33;5.00;;;4.45;;
80229;SDS011;69540;42.136;24.742;2023-10-19T04:26:00;6.18;;;4.22;;
80229;SDS011;69540;42.136;24.742;2023-10-19T04:28:30;4.55;;;4.03;;
80229;SDS011;69540;42.136;24.742;2023-10-19T04:31:03;4.78;;;4.28;;
80229;SDS011;69540;42.136;24.742;2023-10-19T04:33:31;4.95;;;4.45;;
80229;SDS011;69540;42.136;24.742;2023-10-19T04:35:57;4.78;;;4.28;;
80229;SDS011;69540;42.136;24.742;2023-10-19T04:38:25;5.38;;;4.88;;
80229;SDS011;69540;42.136;24.742;2023-10-19T04:41:02;5.20;;;4.10;;
80229;SDS011;69540;42.136;24.742;2023-10-19T04:43:32;4.72;;;4.20;;
80229;SDS011;69540;42.136;24.742;2023-10-19T04:45:58;5.05;;;4.18;;
80229;SDS011;69540;42.136;24.742;2023-10-19T04:48:24;5.60;;;5.20;;
80229;SDS011;69540;42.136;24.742;2023-10-19T04:50:49;5.30;;;4.90;;
80229;SDS011;69540;42.136;24.742;2023-10-19T04:53:15;5.40;;;4.90;;
80229;SDS011;69540;42.136;24.742;2023-10-19T04:55:42;4.97;;;4.57;;
80229;SDS011;69540;42.136;24.742;2023-10-19T04:58:10;5.38;;;4.88;;
80229;SDS011;69540;42.136;24.742;2023-10-19T05:00:35;5.03;;;4.50;;
80229;SDS011;69540;42.136;24.742;2023-10-19T05:03:01;4.90;;;4.47;;
80229;SDS011;69540;42.136;24.742;2023-10-19T05:05:27;4.88;;;4.47;;
80229;SDS011;69540;42.136;24.742;2023-10-19T05:07:53;4.93;;;4.40;;
80229;SDS011;69540;42.136;24.742;2023-10-19T05:10:18;6.28;;;4.50;;
80229;SDS011;69540;42.136;24.742;2023-10-19T05:12:44;5.38;;;4.55;;
80229;SDS011;69540;42.136;24.742;2023-10-19T05:15:10;5.18;;;4.28;;
80229;SDS011;69540;42.136;24.742;2023-10-19T05:17:36;5.05;;;4.38;;
80229;SDS011;69540;42.136;24.742;2023-10-19T05:20:02;5.45;;;4.10;;
80229;SDS011;69540;42.136;24.742;2023-10-19T05:22:30;4.65;;;4.25;;
80229;SDS011;69540;42.136;24.742;2023-10-19T05:24:57;4.38;;;3.78;;
80229;SDS011;69540;42.136;24.742;2023-10-19T05:27:23;4.30;;;3.90;;
80229;SDS011;69540;42.136;24.742;2023-10-19T05:29:49;8.48;;;4.18;;
80229;SDS011;69540;42.136;24.742;2023-10-19T05:32:16;4.20;;;3.50;;
80229;SDS011;69540;42.136;24.742;2023-10-19T05:34:42;7.75;;;4.45;;
80229;SDS011;69540;42.136;24.742;2023-10-19T05:37:07;4.35;;;3.50;;
80229;SDS011;69540;42.136;24.742;2023-10-19T05:39:33;3.70;;;3.40;;
80229;SDS011;69540;42.136;24.742;2023-10-19T05:42:01;4.38;;;3.97;;
80229;SDS011;69540;42.136;24.742;2023-10-19T05:44:27;5.88;;;3.70;;
80229;SDS011;69540;42.136;24.742;2023-10-19T05:46:56;4.97;;;3.88;;
80229;SDS011;69540;42.136;24.742;2023-10-19T05:49:23;3.60;;;3.30;;
80229;SDS011;69540;42.136;24.742;2023-10-19T05:51:49;5.00;;;4.00;;
80229;SDS011;69540;42.136;24.742;2023-10-19T05:54:15;6.13;;;3.90;;
80229;SDS011;69540;42.136;24.742;2023-10-19T05:56:42;4.97;;;3.80;;
80229;SDS011;69540;42.136;24.742;2023-10-19T05:59:08;5.30;;;4.20;;
80229;SDS011;69540;42.136;24.742;2023-10-19T06:01:35;6.45;;;3.58;;
80229;SDS011;69540;42.136;24.742;2023-10-19T06:04:02;4.20;;;3.75;;
80229;SDS011;69540;42.136;24.742;2023-10-19T06:06:28;4.40;;;3.70;;
80229;SDS011;69540;42.136;24.742;2023-10-19T06:08:54;4.25;;;3.78;;
80229;SDS011;69540;42.136;24.742;2023-10-19T06:11:20;6.13;;;3.53;;
80229;SDS011;69540;42.136;24.742;2023-10-19T06:13:46;4.47;;;3.65;;
80229;SDS011;69540;42.136;24.742;2023-10-19T06:16:12;4.55;;;3.90;;
80229;SDS011;69540;42.136;24.742;2023-10-19T06:18:39;3.95;;;3.60;;
80229;SDS011;69540;42.136;24.742;2023-10-19T06:21:05;6.38;;;4.00;;
80229;SDS011;69540;42.136;24.742;2023-10-19T06:23:30;4.65;;;3.97;;
80229;SDS011;69540;42.136;24.742;2023-10-19T06:25:56;8.65;;;3.75;;
80229;SDS011;69540;42.136;24.742;2023-10-19T06:28:22;5.30;;;4.10;;
80229;SDS011;69540;42.136;24.742;2023-10-19T06:30:48;4.30;;;3.90;;
80229;SDS011;69540;42.136;24.742;2023-10-19T06:33:15;4.95;;;3.80;;
80229;SDS011;69540;42.136;24.742;2023-10-19T06:35:41;4.10;;;3.63;;
80229;SDS011;69540;42.136;24.742;2023-10-19T06:38:06;5.15;;;3.75;;
80229;SDS011;69540;42.136;24.742;2023-10-19T06:40:34;4.85;;;4.00;;
80229;SDS011;69540;42.136;24.742;2023-10-19T06:43:03;5.55;;;3.53;;
80229;SDS011;69540;42.136;24.742;2023-10-19T06:45:30;4.35;;;3.85;;
80229;SDS011;69540;42.136;24.742;2023-10-19T06:47:56;4.30;;;3.90;;
80229;SDS011;69540;42.136;24.742;2023-10-19T06:50:23;6.32;;;3.67;;
80229;SDS011;69540;42.136;24.742;2023-10-19T06:52:51;4.63;;;4.13;;
80229;SDS011;69540;42.136;24.742;2023-10-19T06:55:17;3.90;;;3.50;;
80229;SDS011;69540;42.136;24.742;2023-10-19T06:57:49;3.75;;;3.45;;
80229;SDS011;69540;42.136;24.742;2023-10-19T07:00:16;4.28;;;3.80;;
80229;SDS011;69540;42.136;24.742;2023-10-19T07:02:45;4.45;;;3.80;;
80229;SDS011;69540;42.136;24.742;2023-10-19T07:05:12;3.95;;;3.63;;
80229;SDS011;69540;42.136;24.742;2023-10-19T07:07:47;4.10;;;3.67;;
80229;SDS011;69540;42.136;24.742;2023-10-19T07:10:13;4.43;;;3.55;;
80229;SDS011;69540;42.136;24.742;2023-10-19T07:12:44;3.60;;;3.30;;
80229;SDS011;69540;42.136;24.742;2023-10-19T07:15:12;4.35;;;3.97;;
80229;SDS011;69540;42.136;24.742;2023-10-19T07:17:44;5.72;;;4.22;;
80229;SDS011;69540;42.136;24.742;2023-10-19T07:20:11;4.18;;;3.70;;
80229;SDS011;69540;42.136;24.742;2023-10-19T07:22:50;3.90;;;3.50;;
80229;SDS011;69540;42.136;24.742;2023-10-19T07:25:17;3.80;;;3.50;;
80229;SDS011;69540;42.136;24.742;2023-10-19T07:27:51;3.85;;;3.55;;
80229;SDS011;69540;42.136;24.742;2023-10-19T07:30:17;3.85;;;3.30;;
80229;SDS011;69540;42.136;24.742;2023-10-19T07:32:51;5.07;;;3.80;;
80229;SDS011;69540;42.136;24.742;2023-10-19T07:37:51;4.03;;;3.63;;
80229;SDS011;69540;42.136;24.742;2023-10-19T07:40:17;3.75;;;3.42;;
80229;SDS011;69540;42.136;24.742;2023-10-19T07:42:46;4.10;;;3.70;;
80229;SDS011;69540;42.136;24.742;2023-10-19T07:45:14;4.22;;;3.40;;
80229;SDS011;69540;42.136;24.742;2023-10-19T07:47:40;3.90;;;3.25;;
80229;SDS011;69540;42.136;24.742;2023-10-19T07:50:09;4.72;;;3.50;;
80229;SDS011;69540;42.136;24.742;2023-10-19T07:52:42;3.75;;;3.45;;
80229;SDS011;69540;42.136;24.742;2023-10-19T07:55:09;4.00;;;3.40;;
80229;SDS011;69540;42.136;24.742;2023-10-19T07:57:35;5.22;;;3.55;;
80229;SDS011;69540;42.136;24.742;2023-10-19T08:00:01;3.83;;;3.53;;
80229;SDS011;69540;42.136;24.742;2023-10-19T08:02:28;4.70;;;3.58;;
80229;SDS011;69540;42.136;24.742;2023-10-19T08:04:55;3.75;;;3.35;;
80229;SDS011;69540;42.136;24.742;2023-10-19T08:07:21;4.10;;;3.80;;
80229;SDS011;69540;42.136;24.742;2023-10-19T08:09:47;4.32;;;3.55;;
80229;SDS011;69540;42.136;24.742;2023-10-19T08:12:12;3.67;;;3.38;;
80229;SDS011;69540;42.136;24.742;2023-10-19T08:14:39;3.72;;;3.42;;
80229;SDS011;69540;42.136;24.742;2023-10-19T08:17:05;3.58;;;3.25;;
80229;SDS011;69540;42.136;24.742;2023-10-19T08:19:33;3.97;;;3.20;;
80229;SDS011;69540;42.136;24.742;2023-10-19T08:21:59;3.55;;;3.25;;
80229;SDS011;69540;42.136;24.742;2023-10-19T08:24:25;3.45;;;3.15;;
80229;SDS011;69540;42.136;24.742;2023-10-19T08:26:54;4.10;;;3.53;;
80229;SDS011;69540;42.136;24.742;2023-10-19T08:29:20;4.90;;;3.42;;
80229;SDS011;69540;42.136;24.742;2023-10-19T08:31:46;3.50;;;3.15;;
80229;SDS011;69540;42.136;24.742;2023-10-19T08:34:12;4.32;;;3.10;;
80229;SDS011;69540;42.136;24.742;2023-10-19T08:36:38;3.13;;;2.83;;
80229;SDS011;69540;42.136;24.742;2023-10-19T08:39:04;3.55;;;3.20;;
80229;SDS011;69540;42.136;24.742;2023-10-19T08:41:31;5.15;;;3.30;;
80229;SDS011;69540;42.136;24.742;2023-10-19T08:44:00;4.82;;;3.67;;
80229;SDS011;69540;42.136;24.742;2023-10-19T08:46:29;3.30;;;3.00;;
80229;SDS011;69540;42.136;24.742;2023-10-19T08:48:55;3.50;;;3.20;;
80229;SDS011;69540;42.136;24.742;2023-10-19T08:51:24;4.10;;;3.03;;
80229;SDS011;69540;42.136;24.742;2023-10-19T08:53:52;4.75;;;3.33;;
80229;SDS011;69540;42.136;24.742;2023-10-19T08:56:19;3.78;;;3.33;;
80229;SDS011;69540;42.136;24.742;2023-10-19T08:58:48;3.42;;;3.00;;
80229;SDS011;69540;42.136;24.742;2023-10-19T09:01:17;3.50;;;3.20;;
80229;SDS011;69540;42.136;24.742;2023-10-19T09:03:45;3.17;;;2.97;;
80229;SDS011;69540;42.136;24.742;2023-10-19T09:06:11;4.15;;;3.40;;
80229;SDS011;69540;42.136;24.742;2023-10-19T09:08:40;3.45;;;3.08;;
80229;SDS011;69540;42.136;24.742;2023-10-19T09:11:09;3.20;;;3.00;;
80229;SDS011;69540;42.136;24.742;2023-10-19T09:13:48;3.42;;;3.13;;
80229;SDS011;69540;42.136;24.742;2023-10-19T09:16:21;3.63;;;3.13;;
80229;SDS011;69540;42.136;24.742;2023-10-19T09:18:48;3.55;;;3.22;;
80229;SDS011;69540;42.136;24.742;2023-10-19T09:21:16;3.65;;;3.10;;
80229;SDS011;69540;42.136;24.742;2023-10-19T09:23:53;3.30;;;3.00;;
80229;SDS011;69540;42.136;24.742;2023-10-19T09:26:23;3.05;;;2.85;;
80229;SDS011;69540;42.136;24.742;2023-10-19T09:28:50;3.70;;;3.30;;
80229;SDS011;69540;42.136;24.742;2023-10-19T09:31:18;3.72;;;3.00;;
80229;SDS011;69540;42.136;24.742;2023-10-19T09:33:46;3.45;;;3.10;;
80229;SDS011;69540;42.136;24.742;2023-10-19T09:36:14;3.35;;;3.05;;
80229;SDS011;69540;42.136;24.742;2023-10-19T09:41:11;3.88;;;3.30;;
80229;SDS011;69540;42.136;24.742;2023-10-19T09:43:41;3.38;;;3.00;;
80229;SDS011;69540;42.136;24.742;2023-10-19T09:46:24;3.33;;;3.03;;
80229;SDS011;69540;42.136;24.742;2023-10-19T09:48:56;3.47;;;3.17;;
80229;SDS011;69540;42.136;24.742;2023-10-19T09:51:25;3.10;;;2.90;;
80229;SDS011;69540;42.136;24.742;2023-10-19T09:53:53;3.05;;;2.85;;
80229;SDS011;69540;42.136;24.742;2023-10-19T09:56:49;3.60;;;3.30;;
80229;SDS011;69540;42.136;24.742;2023-10-19T09:59:33;3.33;;;3.03;;
80229;SDS011;69540;42.136;24.742;2023-10-19T10:04:33;3.05;;;2.85;;
80229;SDS011;69540;42.136;24.742;2023-10-19T10:07:04;3.55;;;3.22;;
80229;SDS011;69540;42.136;24.742;2023-10-19T10:09:31;3.10;;;2.90;;
80229;SDS011;69540;42.136;24.742;2023-10-19T10:14:55;3.03;;;2.72;;
80229;SDS011;69540;42.136;24.742;2023-10-19T10:17:23;4.82;;;2.80;;
80229;SDS011;69540;42.136;24.742;2023-10-19T10:19:53;4.00;;;3.10;;
80229;SDS011;69540;42.136;24.742;2023-10-19T10:22:21;4.05;;;3.10;;
80229;SDS011;69540;42.136;24.742;2023-10-19T10:24:59;3.10;;;2.90;;
80229;SDS011;69540;42.136;24.742;2023-10-19T10:27:25;3.63;;;2.60;;
80229;SDS011;69540;42.136;24.742;2023-10-19T10:29:57;2.97;;;2.78;;
80229;SDS011;69540;42.136;24.742;2023-10-19T10:35:08;3.70;;;3.03;;
80229;SDS011;69540;42.136;24.742;2023-10-19T10:37:37;3.20;;;2.90;;
80229;SDS011;69540;42.136;24.742;2023-10-19T10:40:05;3.10;;;2.90;;
80229;SDS011;69540;42.136;24.742;2023-10-19T10:42:31;3.22;;;2.75;;
80229;SDS011;69540;42.136;24.742;2023-10-19T10:44:59;2.75;;;2.55;;
80229;SDS011;69540;42.136;24.742;2023-10-19T10:47:24;2.83;;;2.60;;
80229;SDS011;69540;42.136;24.742;2023-10-19T10:49:51;2.85;;;2.65;;
80229;SDS011;69540;42.136;24.742;2023-10-19T10:52:33;3.00;;;2.80;;
80229;SDS011;69540;42.136;24.742;2023-10-19T10:57:34;3.30;;;3.10;;
80229;SDS011;69540;42.136;24.742;2023-10-19T11:00:08;2.90;;;2.70;;
80229;SDS011;69540;42.136;24.742;2023-10-19T11:02:40;3.53;;;3.22;;
80229;SDS011;69540;42.136;24.742;2023-10-19T11:05:11;3.10;;;2.80;;
80229;SDS011;69540;42.136;24.742;2023-10-19T11:07:49;3.20;;;2.90;;
80229;SDS011;69540;42.136;24.742;2023-10-19T11:10:34;3.15;;;2.85;;
80229;SDS011;69540;42.136;24.742;2023-10-19T11:13:05;3.30;;;3.00;;
80229;SDS011;69540;42.136;24.742;2023-10-19T11:15:35;4.15;;;3.47;;
80229;SDS011;69540;42.136;24.742;2023-10-19T11:18:03;3.55;;;3.22;;
80229;SDS011;69540;42.136;24.742;2023-10-19T11:20:29;3.78;;;3.47;;
80229;SDS011;69540;42.136;24.742;2023-10-19T11:22:56;3.50;;;3.20;;
80229;SDS011;69540;42.136;24.742;2023-10-19T11:25:26;3.20;;;3.00;;
80229;SDS011;69540;42.136;24.742;2023-10-19T11:27:56;3.70;;;3.22;;
80229;SDS011;69540;42.136;24.742;2023-10-19T11:30:23;3.42;;;3.05;;
80229;SDS011;69540;42.136;24.742;2023-10-19T11:32:56;3.63;;;3.10;;
80229;SDS011;69540;42.136;24.742;2023-10-19T11:35:23;3.83;;;3.35;;
80229;SDS011;69540;42.136;24.742;2023-10-19T11:37:50;4.97;;;3.33;;
80229;SDS011;69540;42.136;24.742;2023-10-19T11:40:23;3.35;;;2.95;;
80229;SDS011;69540;42.136;24.742;2023-10-19T11:42:49;4.00;;;3.20;;
80229;SDS011;69540;42.136;24.742;2023-10-19T11:45:15;3.42;;;3.13;;
80229;SDS011;69540;42.136;24.742;2023-10-19T11:47:45;3.60;;;3.30;;
80229;SDS011;69540;42.136;24.742;2023-10-19T11:50:11;3.63;;;3.33;;
80229;SDS011;69540;42.136;24.742;2023-10-19T11:52:39;5.60;;;3.42;;
80229;SDS011;69540;42.136;24.742;2023-10-19T11:55:05;3.60;;;3.30;;
80229;SDS011;69540;42.136;24.742;2023-10-19T11:57:33;3.85;;;3.55;;
80229;SDS011;69540;42.136;24.742;2023-10-19T12:00:00;4.55;;;3.00;;
80229;SDS011;69540;42.136;24.742;2023-10-19T12:02:26;4.03;;;3.40;;
80229;SDS011;69540;42.136;24.742;2023-10-19T12:04:52;3.65;;;3.35;;
80229;SDS011;69540;42.136;24.742;2023-10-19T12:07:17;3.45;;;3.08;;
80229;SDS011;69540;42.136;24.742;2023-10-19T12:09:43;3.55;;;3.25;;
80229;SDS011;69540;42.136;24.742;2023-10-19T12:12:10;3.15;;;2.85;;
80229;SDS011;69540;42.136;24.742;2023-10-19T12:14:36;3.92;;;3.30;;
80229;SDS011;69540;42.136;24.742;2023-10-19T12:17:02;3.33;;;3.00;;
80229;SDS011;69540;42.136;24.742;2023-10-19T12:19:31;4.75;;;3.28;;
80229;SDS011;69540;42.136;24.742;2023-10-19T12:21:57;3.60;;;3.30;;
80229;SDS011;69540;42.136;24.742;2023-10-19T12:24:23;3.50;;;3.20;;
80229;SDS011;69540;42.136;24.742;2023-10-19T12:26:49;3.67;;;3.28;;
80229;SDS011;69540;42.136;24.742;2023-10-19T12:29:16;3.40;;;3.10;;
80229;SDS011;69540;42.136;24.742;2023-10-19T12:31:45;3.55;;;3.25;;
80229;SDS011;69540;42.136;24.742;2023-10-19T12:34:11;3.55;;;3.25;;
80229;SDS011;69540;42.136;24.742;2023-10-19T12:36:37;3.22;;;3.03;;
80229;SDS011;69540;42.136;24.742;2023-10-19T12:39:04;3.60;;;3.30;;
80229;SDS011;69540;42.136;24.742;2023-10-19T12:41:30;3.85;;;3.03;;
80229;SDS011;69540;42.136;24.742;2023-10-19T12:43:56;5.03;;;3.25;;
80229;SDS011;69540;42.136;24.742;2023-10-19T12:46:25;3.65;;;3.35;;
80229;SDS011;69540;42.136;24.742;2023-10-19T12:48:54;3.50;;;3.20;;
80229;SDS011;69540;42.136;24.742;2023-10-19T12:51:21;2.72;;;2.53;;
80229;SDS011;69540;42.136;24.742;2023-10-19T12:53:53;3.58;;;3.28;;
80229;SDS011;69540;42.136;24.742;2023-10-19T12:56:20;3.63;;;3.28;;
80229;SDS011;69540;42.136;24.742;2023-10-19T12:58:46;3.55;;;3.10;;
80229;SDS011;69540;42.136;24.742;2023-10-19T13:01:13;3.85;;;3.00;;
80229;SDS011;69540;42.136;24.742;2023-10-19T13:03:47;3.53;;;3.22;;
80229;SDS011;69540;42.136;24.742;2023-10-19T13:06:14;3.30;;;3.00;;
80229;SDS011;69540;42.136;24.742;2023-10-19T13:08:40;3.60;;;3.30;;
80229;SDS011;69540;42.136;24.742;2023-10-19T13:11:07;3.40;;;3.10;;
80229;SDS011;69540;42.136;24.742;2023-10-19T13:13:34;3.10;;;2.90;;
80229;SDS011;69540;42.136;24.742;2023-10-19T13:16:01;3.45;;;3.15;;
80229;SDS011;69540;42.136;24.742;2023-10-19T13:18:30;3.53;;;3.22;;
80229;SDS011;69540;42.136;24.742;2023-10-19T13:20:59;3.50;;;3.20;;
80229;SDS011;69540;42.136;24.742;2023-10-19T13:23:29;5.07;;;3.03;;
80229;SDS011;69540;42.136;24.742;2023-10-19T13:25:58;3.40;;;3.10;;
80229;SDS011;69540;42.136;24.742;2023-10-19T13:28:42;3.50;;;3.20;;
80229;SDS011;69540;42.136;24.742;2023-10-19T13:31:08;3.42;;;3.20;;
80229;SDS011;69540;42.136;24.742;2023-10-19T13:33:34;3.63;;;3.33;;
80229;SDS011;69540;42.136;24.742;2023-10-19T13:36:00;3.40;;;3.10;;
80229;SDS011;69540;42.136;24.742;2023-10-19T13:38:26;3.80;;;3.40;;
80229;SDS011;69540;42.136;24.742;2023-10-19T13:40:51;3.35;;;2.97;;
80229;SDS011;69540;42.136;24.742;2023-10-19T13:43:18;3.10;;;2.80;;
80229;SDS011;69540;42.136;24.742;2023-10-19T13:45:45;3.47;;;2.92;;
80229;SDS011;69540;42.136;24.742;2023-10-19T13:48:12;3.63;;;3.20;;
80229;SDS011;69540;42.136;24.742;2023-10-19T13:50:42;3.40;;;3.08;;
80229;SDS011;69540;42.136;24.742;2023-10-19T13:53:11;3.30;;;3.00;;
80229;SDS011;69540;42.136;24.742;2023-10-19T13:55:36;4.00;;;3.40;;
80229;SDS011;69540;42.136;24.742;2023-10-19T13:58:02;3.17;;;2.88;;
80229;SDS011;69540;42.136;24.742;2023-10-19T14:00:28;4.68;;;3.05;;
80229;SDS011;69540;42.136;24.742;2023-10-19T14:03:03;3.90;;;3.30;;
80229;SDS011;69540;42.136;24.742;2023-10-19T14:05:30;3.35;;;3.08;;
80229;SDS011;69540;42.136;24.742;2023-10-19T14:08:05;3.53;;;3.22;;
80229;SDS011;69540;42.136;24.742;2023-10-19T14:10:32;3.10;;;2.83;;
80229;SDS011;69540;42.136;24.742;2023-10-19T14:13:00;3.42;;;3.05;;
80229;SDS011;69540;42.136;24.742;2023-10-19T14:15:26;3.55;;;3.28;;
80229;SDS011;69540;42.136;24.742;2023-10-19T14:17:54;3.70;;;3.13;;
80229;SDS011;69540;42.136;24.742;2023-10-19T14:20:23;3.60;;;3.15;;
80229;SDS011;69540;42.136;24.742;2023-10-19T14:22:49;3.42;;;3.13;;
80229;SDS011;69540;42.136;24.742;2023-10-19T14:25:16;3.97;;;3.30;;
80229;SDS011;69540;42.136;24.742;2023-10-19T14:27:45;3.60;;;3.30;;
80229;SDS011;69540;42.136;24.742;2023-10-19T14:30:13;3.28;;;2.97;;
80229;SDS011;69540;42.136;24.742;2023-10-19T14:32:47;4.53;;;3.25;;
80229;SDS011;69540;42.136;24.742;2023-10-19T14:35:14;3.50;;;3.20;;
80229;SDS011;69540;42.136;24.742;2023-10-19T14:37:41;3.60;;;3.30;;
80229;SDS011;69540;42.136;24.742;2023-10-19T14:40:09;3.50;;;3.20;;
80229;SDS011;69540;42.136;24.742;2023-10-19T14:42:40;4.43;;;3.40;;
80229;SDS011;69540;42.136;24.742;2023-10-19T14:45:09;4.07;;;3.30;;
80229;SDS011;69540;42.136;24.742;2023-10-19T14:47:41;3.60;;;3.30;;
80229;SDS011;69540;42.136;24.742;2023-10-19T14:50:11;3.38;;;3.15;;
80229;SDS011;69540;42.136;24.742;2023-10-19T14:52:39;4.50;;;3.55;;
80229;SDS011;69540;42.136;24.742;2023-10-19T14:55:06;4.15;;;3.45;;
80229;SDS011;69540;42.136;24.742;2023-10-19T14:57:35;3.72;;;3.13;;
80229;SDS011;69540;42.136;24.742;2023-10-19T15:00:05;4.32;;;3.92;;